sensor_id;sensor_type;location;lat;lon;timestamp;pressure;altitude;pressure_sealevel;temperature;humidity
78773;BME280;68111;44.728;11.290;2023-07-24T00:01:14;101215.63;;;31.43;37.97
78773;BME280;68111;44.728;11.290;2023-07-24T00:03:41;101216.84;;;31.39;37.66
78773;BME280;68111;44.728;11.290;2023-07-24T00:06:08;101207.03;;;31.37;37.82
78773;BME280;68111;44.728;11.290;2023-07-24T00:08:34;101224.41;;;31.36;37.84
78773;BME280;68111;44.728;11.290;2023-07-24T00:11:01;101219.94;;;31.35;37.83
78773;BME280;68111;44.728;11.290;2023-07-24T00:13:30;101224.53;;;31.34;37.86
78773;BME280;68111;44.728;11.290;2023-07-24T00:15:57;101224.41;;;31.36;38.00
78773;BME280;68111;44.728;11.290;2023-07-24T00:18:24;101221.91;;;31.33;37.73
78773;BME280;68111;44.728;11.290;2023-07-24T00:20:50;101239.31;;;31.32;37.45
78773;BME280;68111;44.728;11.290;2023-07-24T00:23:17;101232.34;;;31.28;37.34
78773;BME280;68111;44.728;11.290;2023-07-24T00:25:44;101238.03;;;31.25;37.59
78773;BME280;68111;44.728;11.290;2023-07-24T00:28:11;101219.16;;;31.22;37.35
78773;BME280;68111;44.728;11.290;2023-07-24T00:30:37;101218.34;;;31.19;37.61
78773;BME280;68111;44.728;11.290;2023-07-24T00:33:04;101206.56;;;31.19;37.60
78773;BME280;68111;44.728;11.290;2023-07-24T00:35:31;101200.34;;;31.17;37.40
78773;BME280;68111;44.728;11.290;2023-07-24T00:37:57;101177.81;;;31.13;37.74
78773;BME280;68111;44.728;11.290;2023-07-24T00:40:25;101188.13;;;31.10;37.46
78773;BME280;68111;44.728;11.290;2023-07-24T00:42:51;101188.22;;;31.08;37.68
78773;BME280;68111;44.728;11.290;2023-07-24T00:45:19;101178.31;;;31.07;37.48
78773;BME280;68111;44.728;11.290;2023-07-24T00:47:47;101165.63;;;31.06;37.52
78773;BME280;68111;44.728;11.290;2023-07-24T00:50:14;101171.22;;;31.05;37.18
78773;BME280;68111;44.728;11.290;2023-07-24T00:52:42;101171.56;;;31.00;37.33
78773;BME280;68111;44.728;11.290;2023-07-24T00:55:12;101174.66;;;30.96;37.37
78773;BME280;68111;44.728;11.290;2023-07-24T00:57:40;101180.34;;;30.93;37.34
78773;BME280;68111;44.728;11.290;2023-07-24T01:00:07;101174.13;;;30.91;37.48
78773;BME280;68111;44.728;11.290;2023-07-24T01:02:34;101175.22;;;30.88;37.78
78773;BME280;68111;44.728;11.290;2023-07-24T01:05:01;101187.16;;;30.87;37.39
78773;BME280;68111;44.728;11.290;2023-07-24T01:07:29;101180.81;;;30.86;37.65
78773;BME280;68111;44.728;11.290;2023-07-24T01:09:56;101183.66;;;30.85;37.84
78773;BME280;68111;44.728;11.290;2023-07-24T01:12:31;101177.31;;;30.84;37.84
78773;BME280;68111;44.728;11.290;2023-07-24T01:15:08;101178.31;;;30.83;37.44
78773;BME280;68111;44.728;11.290;2023-07-24T01:17:39;101175.47;;;30.85;37.57
78773;BME280;68111;44.728;11.290;2023-07-24T01:20:09;101176.56;;;30.82;37.28
78773;BME280;68111;44.728;11.290;2023-07-24T01:23:04;101185.13;;;30.78;37.77
78773;BME280;68111;44.728;11.290;2023-07-24T01:25:53;101180.63;;;30.77;37.23
78773;BME280;68111;44.728;11.290;2023-07-24T01:28:21;101187.84;;;30.78;37.37
78773;BME280;68111;44.728;11.290;2023-07-24T01:30:47;101189.81;;;30.76;37.24
78773;BME280;68111;44.728;11.290;2023-07-24T01:33:14;101191.56;;;30.77;37.39
78773;BME280;68111;44.728;11.290;2023-07-24T01:35:43;101180.63;;;30.77;37.39
78773;BME280;68111;44.728;11.290;2023-07-24T01:38:12;101177.91;;;30.77;37.07
78773;BME280;68111;44.728;11.290;2023-07-24T01:40:40;101186.09;;;30.77;37.34
78773;BME280;68111;44.728;11.290;2023-07-24T01:43:07;101191.78;;;30.74;36.89
78773;BME280;68111;44.728;11.290;2023-07-24T01:45:34;101191.78;;;30.74;37.16
78773;BME280;68111;44.728;11.290;2023-07-24T01:48:01;101188.31;;;30.72;37.45
78773;BME280;68111;44.728;11.290;2023-07-24T01:50:28;101192.91;;;30.71;37.29
78773;BME280;68111;44.728;11.290;2023-07-24T01:52:55;101196.72;;;30.69;37.42
78773;BME280;68111;44.728;11.290;2023-07-24T01:55:22;101184.06;;;30.68;37.25
78773;BME280;68111;44.728;11.290;2023-07-24T01:57:48;101174.03;;;30.68;37.52
78773;BME280;68111;44.728;11.290;2023-07-24T02:00:15;101176.97;;;30.65;37.45
78773;BME280;68111;44.728;11.290;2023-07-24T02:02:42;101168.91;;;30.64;37.86
78773;BME280;68111;44.728;11.290;2023-07-24T02:05:09;101152.75;;;30.61;37.97
78773;BME280;68111;44.728;11.290;2023-07-24T02:07:36;101152.88;;;30.59;38.08
78773;BME280;68111;44.728;11.290;2023-07-24T02:10:03;101153.06;;;30.56;37.97
78773;BME280;68111;44.728;11.290;2023-07-24T02:12:29;101159.41;;;30.56;38.15
78773;BME280;68111;44.728;11.290;2023-07-24T02:14:56;101153.19;;;30.54;38.70
78773;BME280;68111;44.728;11.290;2023-07-24T02:17:23;101148.59;;;30.55;38.90
78773;BME280;68111;44.728;11.290;2023-07-24T02:19:50;101147.97;;;30.51;39.13
78773;BME280;68111;44.728;11.290;2023-07-24T02:22:17;101138.16;;;30.49;39.25
78773;BME280;68111;44.728;11.290;2023-07-24T02:24:43;101117.66;;;30.43;39.44
78773;BME280;68111;44.728;11.290;2023-07-24T02:27:24;101109.19;;;30.35;39.61
78773;BME280;68111;44.728;11.290;2023-07-24T02:29:52;101116.59;;;30.33;40.30
78773;BME280;68111;44.728;11.290;2023-07-24T02:32:18;101106.91;;;30.29;40.15
78773;BME280;68111;44.728;11.290;2023-07-24T02:34:50;101086.06;;;30.28;40.15
78773;BME280;68111;44.728;11.290;2023-07-24T02:37:17;101068.19;;;30.24;40.09
78773;BME280;68111;44.728;11.290;2023-07-24T02:39:43;101052.06;;;30.21;40.21
78773;BME280;68111;44.728;11.290;2023-07-24T02:42:10;101034.41;;;30.14;40.20
78773;BME280;68111;44.728;11.290;2023-07-24T02:44:38;101034.00;;;30.07;39.77
78773;BME280;68111;44.728;11.290;2023-07-24T02:47:04;101048.19;;;30.00;40.07
78773;BME280;68111;44.728;11.290;2023-07-24T02:49:32;101057.81;;;29.92;39.86
78773;BME280;68111;44.728;11.290;2023-07-24T02:51:59;101065.41;;;29.87;39.69
78773;BME280;68111;44.728;11.290;2023-07-24T02:54:26;101082.22;;;29.81;39.25
78773;BME280;68111;44.728;11.290;2023-07-24T02:56:53;101095.09;;;29.79;39.79
78773;BME280;68111;44.728;11.290;2023-07-24T02:59:20;101103.38;;;29.78;39.06
78773;BME280;68111;44.728;11.290;2023-07-24T03:01:47;101106.22;;;29.76;38.92
78773;BME280;68111;44.728;11.290;2023-07-24T03:04:14;101104.25;;;29.78;39.11
78773;BME280;68111;44.728;11.290;2023-07-24T03:06:40;101111.44;;;29.79;38.61
78773;BME280;68111;44.728;11.290;2023-07-24T03:09:07;101115.91;;;29.80;38.75
78773;BME280;68111;44.728;11.290;2023-07-24T03:11:34;101116.88;;;29.79;38.12
78773;BME280;68111;44.728;11.290;2023-07-24T03:14:01;101127.03;;;29.77;37.91
78773;BME280;68111;44.728;11.290;2023-07-24T03:16:28;101134.44;;;29.75;37.83
78773;BME280;68111;44.728;11.290;2023-07-24T03:18:55;101126.50;;;29.72;37.36
78773;BME280;68111;44.728;11.290;2023-07-24T03:21:22;101134.66;;;29.72;37.16
78773;BME280;68111;44.728;11.290;2023-07-24T03:23:49;101133.81;;;29.72;37.10
78773;BME280;68111;44.728;11.290;2023-07-24T03:26:16;101128.47;;;29.70;37.30
78773;BME280;68111;44.728;11.290;2023-07-24T03:28:42;101145.03;;;29.67;37.04
78773;BME280;68111;44.728;11.290;2023-07-24T03:31:09;101146.13;;;29.65;36.76
78773;BME280;68111;44.728;11.290;2023-07-24T03:33:36;101153.41;;;29.64;37.12
78773;BME280;68111;44.728;11.290;2023-07-24T03:36:03;101157.03;;;29.65;36.80
78773;BME280;68111;44.728;11.290;2023-07-24T03:38:30;101148.84;;;29.65;36.67
78773;BME280;68111;44.728;11.290;2023-07-24T03:40:57;101146.00;;;29.66;37.00
78773;BME280;68111;44.728;11.290;2023-07-24T03:43:23;101128.78;;;29.66;36.72
78773;BME280;68111;44.728;11.290;2023-07-24T03:45:50;101138.94;;;29.63;36.77
78773;BME280;68111;44.728;11.290;2023-07-24T03:48:17;101144.47;;;29.62;36.36
78773;BME280;68111;44.728;11.290;2023-07-24T03:50:43;101150.81;;;29.62;36.84
78773;BME280;68111;44.728;11.290;2023-07-24T03:53:10;101137.28;;;29.61;37.03
78773;BME280;68111;44.728;11.290;2023-07-24T03:55:37;101119.97;;;29.62;36.92
78773;BME280;68111;44.728;11.290;2023-07-24T03:58:04;101110.16;;;29.59;37.01
78773;BME280;68111;44.728;11.290;2023-07-24T04:00:30;101107.53;;;29.58;36.94
78773;BME280;68111;44.728;11.290;2023-07-24T04:02:57;101096.88;;;29.55;37.08
78773;BME280;68111;44.728;11.290;2023-07-24T04:05:24;101094.34;;;29.52;37.59
78773;BME280;68111;44.728;11.290;2023-07-24T04:07:51;101085.53;;;29.48;37.55
78773;BME280;68111;44.728;11.290;2023-07-24T04:10:18;101068.53;;;29.45;37.88
78773;BME280;68111;44.728;11.290;2023-07-24T04:12:44;101057.81;;;29.42;37.79
78773;BME280;68111;44.728;11.290;2023-07-24T04:15:11;101041.69;;;29.39;38.18
78773;BME280;68111;44.728;11.290;2023-07-24T04:17:38;101039.09;;;29.37;38.62
78773;BME280;68111;44.728;11.290;2023-07-24T04:20:07;101038.31;;;29.35;38.35
78773;BME280;68111;44.728;11.290;2023-07-24T04:22:33;101040.19;;;29.35;38.78
78773;BME280;68111;44.728;11.290;2023-07-24T04:25:00;101038.44;;;29.34;38.51
78773;BME280;68111;44.728;11.290;2023-07-24T04:27:27;101040.41;;;29.31;38.86
78773;BME280;68111;44.728;11.290;2023-07-24T04:29:54;101044.97;;;29.31;38.64
78773;BME280;68111;44.728;11.290;2023-07-24T04:32:20;101048.56;;;29.31;39.19
78773;BME280;68111;44.728;11.290;2023-07-24T04:34:47;101062.19;;;29.31;39.00
78773;BME280;68111;44.728;11.290;2023-07-24T04:37:14;101071.22;;;29.32;39.53
78773;BME280;68111;44.728;11.290;2023-07-24T04:39:41;101073.09;;;29.31;39.56
78773;BME280;68111;44.728;11.290;2023-07-24T04:42:07;101087.56;;;29.32;40.42
78773;BME280;68111;44.728;11.290;2023-07-24T04:44:34;101097.59;;;29.31;40.43
78773;BME280;68111;44.728;11.290;2023-07-24T04:47:01;101119.38;;;29.31;41.36
78773;BME280;68111;44.728;11.290;2023-07-24T04:49:30;101159.38;;;29.31;41.27
78773;BME280;68111;44.728;11.290;2023-07-24T04:51:59;101218.19;;;29.34;41.86
78773;BME280;68111;44.728;11.290;2023-07-24T04:54:26;101250.66;;;29.37;42.21
78773;BME280;68111;44.728;11.290;2023-07-24T04:56:53;101221.38;;;29.40;42.49
78773;BME280;68111;44.728;11.290;2023-07-24T04:59:19;101186.84;;;29.41;43.11
78773;BME280;68111;44.728;11.290;2023-07-24T05:01:46;101244.13;;;29.39;42.91
78773;BME280;68111;44.728;11.290;2023-07-24T05:04:13;101280.53;;;29.38;43.02
78773;BME280;68111;44.728;11.290;2023-07-24T05:06:39;101282.16;;;29.41;43.72
78773;BME280;68111;44.728;11.290;2023-07-24T05:09:06;101246.88;;;29.39;43.42
78773;BME280;68111;44.728;11.290;2023-07-24T05:11:33;101093.56;;;29.37;43.39
78773;BME280;68111;44.728;11.290;2023-07-24T05:14:00;101035.72;;;29.34;43.50
78773;BME280;68111;44.728;11.290;2023-07-24T05:16:26;101051.41;;;29.30;44.04
78773;BME280;68111;44.728;11.290;2023-07-24T05:18:53;101089.00;;;29.25;44.59
78773;BME280;68111;44.728;11.290;2023-07-24T05:21:20;101192.56;;;29.23;44.78
78773;BME280;68111;44.728;11.290;2023-07-24T05:23:47;101333.00;;;29.27;44.42
78773;BME280;68111;44.728;11.290;2023-07-24T05:26:14;101383.56;;;29.31;44.93
78773;BME280;68111;44.728;11.290;2023-07-24T05:28:40;101390.75;;;29.33;45.56
78773;BME280;68111;44.728;11.290;2023-07-24T05:31:07;101381.16;;;29.27;45.97
78773;BME280;68111;44.728;11.290;2023-07-24T05:33:34;101341.00;;;29.16;46.54
78773;BME280;68111;44.728;11.290;2023-07-24T05:36:02;101337.06;;;29.08;46.32
78773;BME280;68111;44.728;11.290;2023-07-24T05:38:30;101350.00;;;29.04;46.34
78773;BME280;68111;44.728;11.290;2023-07-24T05:41:02;101301.09;;;29.03;46.48
78773;BME280;68111;44.728;11.290;2023-07-24T05:43:30;101286.59;;;29.02;46.58
78773;BME280;68111;44.728;11.290;2023-07-24T05:45:57;101262.09;;;29.02;46.89
78773;BME280;68111;44.728;11.290;2023-07-24T05:48:25;101240.13;;;29.05;47.05
78773;BME280;68111;44.728;11.290;2023-07-24T05:50:52;101207.34;;;29.07;46.57
78773;BME280;68111;44.728;11.290;2023-07-24T05:53:18;101215.50;;;29.07;46.84
78773;BME280;68111;44.728;11.290;2023-07-24T05:55:45;101162.16;;;29.04;46.85
78773;BME280;68111;44.728;11.290;2023-07-24T05:58:12;101108.69;;;29.03;47.01
78773;BME280;68111;44.728;11.290;2023-07-24T06:00:38;101078.06;;;28.99;47.27
78773;BME280;68111;44.728;11.290;2023-07-24T06:03:05;101045.72;;;28.95;47.66
78773;BME280;68111;44.728;11.290;2023-07-24T06:05:34;101026.03;;;28.91;47.39
78773;BME280;68111;44.728;11.290;2023-07-24T06:08:02;101010.13;;;28.85;47.37
78773;BME280;68111;44.728;11.290;2023-07-24T06:10:29;100985.63;;;28.85;47.74
78773;BME280;68111;44.728;11.290;2023-07-24T06:12:55;100985.75;;;28.84;48.00
78773;BME280;68111;44.728;11.290;2023-07-24T06:15:22;101045.59;;;28.84;48.34
78773;BME280;68111;44.728;11.290;2023-07-24T06:17:49;101065.44;;;28.86;48.81
78773;BME280;68111;44.728;11.290;2023-07-24T06:20:19;101068.81;;;28.89;47.82
78773;BME280;68111;44.728;11.290;2023-07-24T06:22:46;101079.25;;;28.95;48.17
78773;BME280;68111;44.728;11.290;2023-07-24T06:25:13;101072.84;;;28.96;48.67
78773;BME280;68111;44.728;11.290;2023-07-24T06:27:40;101115.53;;;28.96;48.61
78773;BME280;68111;44.728;11.290;2023-07-24T06:30:07;101141.00;;;28.95;48.70
78773;BME280;68111;44.728;11.290;2023-07-24T06:32:42;101110.28;;;28.93;48.56
78773;BME280;68111;44.728;11.290;2023-07-24T06:35:08;101135.56;;;28.95;48.22
78773;BME280;68111;44.728;11.290;2023-07-24T06:37:35;101122.91;;;28.94;48.07
78773;BME280;68111;44.728;11.290;2023-07-24T06:40:02;101128.38;;;28.94;47.50
78773;BME280;68111;44.728;11.290;2023-07-24T06:42:29;101149.16;;;28.95;47.76
78773;BME280;68111;44.728;11.290;2023-07-24T06:44:56;101182.59;;;28.97;47.05
78773;BME280;68111;44.728;11.290;2023-07-24T06:47:23;101201.44;;;29.00;47.01
78773;BME280;68111;44.728;11.290;2023-07-24T06:49:49;101211.16;;;29.04;46.11
78773;BME280;68111;44.728;11.290;2023-07-24T06:52:16;101213.56;;;29.09;45.92
78773;BME280;68111;44.728;11.290;2023-07-24T06:54:43;101157.03;;;29.12;45.78
78773;BME280;68111;44.728;11.290;2023-07-24T06:57:10;101109.56;;;29.16;45.67
78773;BME280;68111;44.728;11.290;2023-07-24T06:59:36;101084.09;;;29.17;45.58
78773;BME280;68111;44.728;11.290;2023-07-24T07:02:03;101012.31;;;29.18;45.33
78773;BME280;68111;44.728;11.290;2023-07-24T07:04:30;101028.66;;;29.18;45.28
78773;BME280;68111;44.728;11.290;2023-07-24T07:06:57;101060.34;;;29.19;44.84
78773;BME280;68111;44.728;11.290;2023-07-24T07:09:23;100997.72;;;29.19;44.99
78773;BME280;68111;44.728;11.290;2023-07-24T07:11:50;100935.31;;;29.16;44.65
78773;BME280;68111;44.728;11.290;2023-07-24T07:14:17;100868.56;;;29.11;44.83
78773;BME280;68111;44.728;11.290;2023-07-24T07:16:43;100767.53;;;29.03;45.49
78773;BME280;68111;44.728;11.290;2023-07-24T07:19:10;100745.34;;;28.96;45.28
78773;BME280;68111;44.728;11.290;2023-07-24T07:21:37;100772.03;;;28.91;45.42
78773;BME280;68111;44.728;11.290;2023-07-24T07:24:04;100852.06;;;28.88;45.40
78773;BME280;68111;44.728;11.290;2023-07-24T07:26:31;100924.56;;;28.89;45.53
78773;BME280;68111;44.728;11.290;2023-07-24T07:28:59;100946.00;;;28.94;45.24
78773;BME280;68111;44.728;11.290;2023-07-24T07:31:26;100972.91;;;28.98;44.63
78773;BME280;68111;44.728;11.290;2023-07-24T07:33:52;101008.72;;;29.05;45.33
78773;BME280;68111;44.728;11.290;2023-07-24T07:36:19;101051.06;;;29.09;45.01
78773;BME280;68111;44.728;11.290;2023-07-24T07:38:48;101033.53;;;29.13;44.72
78773;BME280;68111;44.728;11.290;2023-07-24T07:41:15;101005.13;;;29.17;44.10
78773;BME280;68111;44.728;11.290;2023-07-24T07:43:42;101026.56;;;29.22;44.33
78773;BME280;68111;44.728;11.290;2023-07-24T07:46:09;101009.13;;;30.12;43.93
78773;BME280;68111;44.728;11.290;2023-07-24T07:48:35;100959.97;;;31.62;42.28
78773;BME280;68111;44.728;11.290;2023-07-24T07:51:02;100944.84;;;33.06;40.25
78773;BME280;68111;44.728;11.290;2023-07-24T07:53:29;100947.50;;;34.56;37.68
78773;BME280;68111;44.728;11.290;2023-07-24T07:55:56;100958.69;;;35.85;35.47
78773;BME280;68111;44.728;11.290;2023-07-24T07:58:24;100962.47;;;36.91;34.65
78773;BME280;68111;44.728;11.290;2023-07-24T08:00:50;100952.63;;;37.82;33.51
78773;BME280;68111;44.728;11.290;2023-07-24T08:03:17;100952.72;;;38.39;32.06
78773;BME280;68111;44.728;11.290;2023-07-24T08:05:44;100952.38;;;38.18;31.53
78773;BME280;68111;44.728;11.290;2023-07-24T08:08:11;100935.06;;;37.57;31.90
78773;BME280;68111;44.728;11.290;2023-07-24T08:10:39;100929.44;;;36.37;33.10
78773;BME280;68111;44.728;11.290;2023-07-24T08:13:06;100944.22;;;35.09;35.46
78773;BME280;68111;44.728;11.290;2023-07-24T08:15:37;100935.09;;;34.03;37.94
78773;BME280;68111;44.728;11.290;2023-07-24T08:18:05;100943.47;;;34.12;39.33
78773;BME280;68111;44.728;11.290;2023-07-24T08:20:34;100936.03;;;35.91;37.45
78773;BME280;68111;44.728;11.290;2023-07-24T08:23:01;100920.22;;;37.92;34.69
78773;BME280;68111;44.728;11.290;2023-07-24T08:25:28;100918.47;;;39.21;33.00
78773;BME280;68111;44.728;11.290;2023-07-24T08:28:13;100927.41;;;40.24;31.59
78773;BME280;68111;44.728;11.290;2023-07-24T08:30:40;100908.41;;;40.82;29.75
78773;BME280;68111;44.728;11.290;2023-07-24T08:33:06;100901.44;;;41.15;29.00
78773;BME280;68111;44.728;11.290;2023-07-24T08:35:33;100900.66;;;41.51;29.16
78773;BME280;68111;44.728;11.290;2023-07-24T08:38:00;100912.59;;;41.81;28.21
78773;BME280;68111;44.728;11.290;2023-07-24T08:40:27;100908.66;;;42.54;27.61
78773;BME280;68111;44.728;11.290;2023-07-24T08:42:54;100902.41;;;43.01;26.71
78773;BME280;68111;44.728;11.290;2023-07-24T08:45:22;100900.88;;;43.33;25.41
78773;BME280;68111;44.728;11.290;2023-07-24T08:47:49;100921.94;;;43.15;25.75
78773;BME280;68111;44.728;11.290;2023-07-24T08:50:17;100920.47;;;42.41;25.81
78773;BME280;68111;44.728;11.290;2023-07-24T08:52:44;100933.25;;;42.36;25.66
78773;BME280;68111;44.728;11.290;2023-07-24T08:55:13;100956.19;;;41.21;26.85
78773;BME280;68111;44.728;11.290;2023-07-24T08:57:40;100978.81;;;39.65;28.24
78773;BME280;68111;44.728;11.290;2023-07-24T09:00:07;100995.56;;;38.59;30.07
78773;BME280;68111;44.728;11.290;2023-07-24T09:02:35;101012.47;;;38.48;30.75
78773;BME280;68111;44.728;11.290;2023-07-24T09:05:02;101026.72;;;38.11;31.32
78773;BME280;68111;44.728;11.290;2023-07-24T09:07:30;101033.34;;;37.84;31.31
78773;BME280;68111;44.728;11.290;2023-07-24T09:09:57;101033.88;;;37.88;30.70
78773;BME280;68111;44.728;11.290;2023-07-24T09:12:24;101022.16;;;38.85;29.74
78773;BME280;68111;44.728;11.290;2023-07-24T09:15:04;100992.72;;;40.50;27.67
78773;BME280;68111;44.728;11.290;2023-07-24T09:17:33;100971.38;;;41.84;26.15
78773;BME280;68111;44.728;11.290;2023-07-24T09:20:01;100979.97;;;42.26;25.28
78773;BME280;68111;44.728;11.290;2023-07-24T09:22:28;100969.94;;;41.89;25.58
78773;BME280;68111;44.728;11.290;2023-07-24T09:24:56;100961.13;;;41.55;26.02
78773;BME280;68111;44.728;11.290;2023-07-24T09:27:26;100984.22;;;41.85;26.01
78773;BME280;68111;44.728;11.290;2023-07-24T09:29:54;101042.13;;;42.39;24.92
78773;BME280;68111;44.728;11.290;2023-07-24T09:32:23;101078.47;;;42.95;24.35
78773;BME280;68111;44.728;11.290;2023-07-24T09:34:51;101097.56;;;42.84;23.93
78773;BME280;68111;44.728;11.290;2023-07-24T09:37:30;101100.63;;;42.02;24.86
78773;BME280;68111;44.728;11.290;2023-07-24T09:39:57;101108.81;;;41.51;24.65
78773;BME280;68111;44.728;11.290;2023-07-24T09:42:30;101117.81;;;40.70;25.36
78773;BME280;68111;44.728;11.290;2023-07-24T09:44:57;101150.19;;;39.91;26.22
78773;BME280;68111;44.728;11.290;2023-07-24T09:47:24;101151.84;;;39.12;27.35
78773;BME280;68111;44.728;11.290;2023-07-24T09:50:10;101149.88;;;38.30;28.68
78773;BME280;68111;44.728;11.290;2023-07-24T09:52:40;101140.72;;;37.95;29.45
78773;BME280;68111;44.728;11.290;2023-07-24T09:55:17;101127.69;;;38.14;29.51
78773;BME280;68111;44.728;11.290;2023-07-24T09:57:46;101116.16;;;38.18;29.15
78773;BME280;68111;44.728;11.290;2023-07-24T10:00:15;101094.78;;;37.86;29.87
78773;BME280;68111;44.728;11.290;2023-07-24T10:02:41;101036.72;;;37.44;30.78
78773;BME280;68111;44.728;11.290;2023-07-24T10:05:08;101041.56;;;36.98;31.58
78773;BME280;68111;44.728;11.290;2023-07-24T10:07:35;101008.88;;;36.42;32.83
78773;BME280;68111;44.728;11.290;2023-07-24T10:10:04;100999.47;;;35.89;33.20
78773;BME280;68111;44.728;11.290;2023-07-24T10:12:31;100988.63;;;35.60;34.06
78773;BME280;68111;44.728;11.290;2023-07-24T10:14:59;100958.63;;;35.40;33.60
78773;BME280;68111;44.728;11.290;2023-07-24T10:17:40;100938.38;;;35.31;33.92
78773;BME280;68111;44.728;11.290;2023-07-24T10:20:09;100930.88;;;35.60;33.79
78773;BME280;68111;44.728;11.290;2023-07-24T10:22:36;100924.84;;;36.81;32.49
78773;BME280;68111;44.728;11.290;2023-07-24T10:25:09;100912.50;;;38.53;29.65
78773;BME280;68111;44.728;11.290;2023-07-24T10:27:42;100895.13;;;39.86;27.66
78773;BME280;68111;44.728;11.290;2023-07-24T10:30:10;100882.22;;;40.99;26.43
78773;BME280;68111;44.728;11.290;2023-07-24T10:33:19;100875.63;;;41.80;25.37
78773;BME280;68111;44.728;11.290;2023-07-24T10:35:49;100905.28;;;42.37;24.72
78773;BME280;68111;44.728;11.290;2023-07-24T10:38:17;100935.94;;;42.72;23.70
78773;BME280;68111;44.728;11.290;2023-07-24T10:40:46;100954.31;;;43.22;23.18
78773;BME280;68111;44.728;11.290;2023-07-24T10:43:19;100964.16;;;43.59;22.72
78773;BME280;68111;44.728;11.290;2023-07-24T10:48:23;101006.88;;;43.66;21.80
78773;BME280;68111;44.728;11.290;2023-07-24T10:50:51;101034.84;;;42.81;22.71
78773;BME280;68111;44.728;11.290;2023-07-24T10:53:22;101038.38;;;42.11;22.80
78773;BME280;68111;44.728;11.290;2023-07-24T10:55:50;101021.91;;;41.50;23.48
78773;BME280;68111;44.728;11.290;2023-07-24T10:58:17;100961.00;;;40.90;23.99
78773;BME280;68111;44.728;11.290;2023-07-24T11:00:45;100897.88;;;40.77;24.31
78773;BME280;68111;44.728;11.290;2023-07-24T11:03:13;100882.69;;;40.88;23.69
78773;BME280;68111;44.728;11.290;2023-07-24T11:05:41;100862.88;;;40.76;24.42
78773;BME280;68111;44.728;11.290;2023-07-24T11:08:12;100854.81;;;40.37;24.39
78773;BME280;68111;44.728;11.290;2023-07-24T11:10:46;100854.28;;;39.88;25.49
78773;BME280;68111;44.728;11.290;2023-07-24T11:13:15;100850.41;;;39.43;25.44
78773;BME280;68111;44.728;11.290;2023-07-24T11:15:42;100856.63;;;38.98;25.98
78773;BME280;68111;44.728;11.290;2023-07-24T11:18:27;100869.84;;;38.55;26.61
78773;BME280;68111;44.728;11.290;2023-07-24T11:21:14;100870.22;;;38.36;26.63
78773;BME280;68111;44.728;11.290;2023-07-24T11:26:13;100896.09;;;38.27;26.52
78773;BME280;68111;44.728;11.290;2023-07-24T11:28:41;100900.94;;;38.33;26.60
78773;BME280;68111;44.728;11.290;2023-07-24T11:31:08;100899.91;;;38.34;26.64
78773;BME280;68111;44.728;11.290;2023-07-24T11:33:35;100889.19;;;38.31;27.07
78773;BME280;68111;44.728;11.290;2023-07-24T11:36:02;100890.38;;;38.12;27.35
78773;BME280;68111;44.728;11.290;2023-07-24T11:38:29;100876.75;;;38.02;27.99
78773;BME280;68111;44.728;11.290;2023-07-24T11:40:56;100871.75;;;38.06;28.00
78773;BME280;68111;44.728;11.290;2023-07-24T11:43:24;100867.78;;;38.00;28.43
78773;BME280;68111;44.728;11.290;2023-07-24T11:45:52;100880.19;;;38.04;28.95
78773;BME280;68111;44.728;11.290;2023-07-24T11:48:21;100872.63;;;38.23;28.08
78773;BME280;68111;44.728;11.290;2023-07-24T11:50:52;100873.16;;;38.34;27.95
78773;BME280;68111;44.728;11.290;2023-07-24T11:55:49;100860.88;;;38.13;27.95
78773;BME280;68111;44.728;11.290;2023-07-24T11:58:17;100859.31;;;38.02;27.76
78773;BME280;68111;44.728;11.290;2023-07-24T12:00:45;100857.06;;;37.97;27.94
78773;BME280;68111;44.728;11.290;2023-07-24T12:03:13;100851.22;;;38.00;27.91
78773;BME280;68111;44.728;11.290;2023-07-24T12:05:42;100833.97;;;37.90;28.11
78773;BME280;68111;44.728;11.290;2023-07-24T12:08:10;100822.72;;;37.75;27.63
78773;BME280;68111;44.728;11.290;2023-07-24T12:10:38;100820.25;;;37.56;27.88
78773;BME280;68111;44.728;11.290;2023-07-24T12:13:06;100806.25;;;37.41;28.33
78773;BME280;68111;44.728;11.290;2023-07-24T12:15:33;100787.13;;;37.48;28.24
78773;BME280;68111;44.728;11.290;2023-07-24T12:18:02;100772.47;;;37.56;28.29
78773;BME280;68111;44.728;11.290;2023-07-24T12:20:31;100774.53;;;37.45;28.60
78773;BME280;68111;44.728;11.290;2023-07-24T12:22:58;100771.06;;;37.27;29.03
78773;BME280;68111;44.728;11.290;2023-07-24T12:25:24;100763.75;;;37.10;29.18
78773;BME280;68111;44.728;11.290;2023-07-24T12:27:51;100760.78;;;36.95;29.53
78773;BME280;68111;44.728;11.290;2023-07-24T12:30:18;100758.00;;;36.87;30.04
78773;BME280;68111;44.728;11.290;2023-07-24T12:32:45;100761.41;;;36.81;29.85
78773;BME280;68111;44.728;11.290;2023-07-24T12:35:12;100765.19;;;36.80;29.91
78773;BME280;68111;44.728;11.290;2023-07-24T12:37:43;100767.41;;;36.76;29.53
78773;BME280;68111;44.728;11.290;2023-07-24T12:40:10;100755.41;;;36.85;29.20
78773;BME280;68111;44.728;11.290;2023-07-24T12:42:37;100754.72;;;36.92;29.23
78773;BME280;68111;44.728;11.290;2023-07-24T12:45:04;100746.84;;;36.97;28.97
78773;BME280;68111;44.728;11.290;2023-07-24T12:47:33;100732.03;;;36.98;29.15
78773;BME280;68111;44.728;11.290;2023-07-24T12:50:00;100749.41;;;36.98;29.25
78773;BME280;68111;44.728;11.290;2023-07-24T12:52:29;100755.06;;;36.89;29.23